Fidelity
UTM 11U Easting = 45 1062, Northing = 56 76123     Elevation = 1905 m
Note to Users: This site contains raw data and is presented "as is" and in real time. Although reasonable care is exercised in providing this information, inaccuracies or omissions may occur due to the properties of weather and data collection systems. The Avalanche Control Section, responsible for its collection, disclaims all responsibility for the accuracy of the information.
Date Max Temp (deg C) Min Temp (deg C) Rel Hum (%) 1 Hr Precip (mm) 1 Hr Snow (cm) HS (cm) HN24 (cm) ILWR Max ILWR Min ILWR Ave ISWR Max ISWR Min ISWR Ave
2021-06-07 15:00 4 3 74 0.0 0 188 0 332 235 336 340 538 323
2021-06-07 16:00 4 3 79 0.0 0 188 0 331 275 335 338 538 349
2021-06-07 17:00 4 3 79 0.0 0 186 0 330 166 332 332 310 233
2021-06-07 18:00 4 3 76 0.0 0 184 0 328 68 330 332 198 104
2021-06-07 19:00 3 3 80 0.0 0 185 0 325 37 327 329 75 52
2021-06-07 20:00 3 2 83 0.0 0 185 0 321 2 323 326 43 19
2021-06-07 21:00 2 1 85 0.0 0 185 0 320 0 321 322 6 0
2021-06-07 22:00 2 1 88 0.0 0 186 0 319 0 319 321 0 0
2021-06-07 23:00 1 1 88 0.0 0 185 0 316 0 318 319 0 0
2021-06-08 00:00 1 0 88 0.0 0 186 0 314 0 315 317 0 0
2021-06-08 01:00 1 0 87 0.0 0 188 0 314 0 315 316 0 0
2021-06-08 02:00 0 0 86 0.0 0 187 0 314 0 316 316 0 0
2021-06-08 03:00 0 0 85 0.0 0 187 0 314 0 315 316 0 0
2021-06-08 04:00 0 -1 85 0.0 0 187 0 312 0 314 315 11 2
2021-06-08 05:00 1 -1 83 0.0 0 187 0 312 6 319 325 131 50
2021-06-08 06:00 2 1 84 0.0 0 187 0 322 46 327 333 302 192
2021-06-08 07:00 3 2 80 0.0 0 185 0 331 170 335 338 488 317
2021-06-08 08:00 4 3 76 0.0 0 186 0 333 208 337 340 667 367
2021-06-08 09:00 6 4 69 0.0 0 185 0 339 380 350 357 1126 726
2021-06-08 10:00 8 6 62 0.0 0 185 0 354 574 359 363 1244 963
2021-06-08 11:00 8 7 51 0.0 0 183 0 360 445 363 367 1211 977
2021-06-08 12:00 10 8 43 0.0 0 185 0 360 522 370 378 1435 1031
2021-06-08 13:00 10 9 41 0.0 0 182 0 365 429 370 378 1416 876
2021-06-08 14:00 11 10 42 0.0 0 181 0 368 296 373 379 1367 837